createdAt,value
2022-08-03T00:00:25.208Z,19.96
2022-08-03T00:01:25.241Z,19.96
2022-08-03T00:02:25.181Z,19.95
2022-08-03T00:03:25.193Z,19.95
2022-08-03T00:04:34.171Z,20.01
2022-08-03T00:05:25.151Z,20.06
2022-08-03T00:06:25.142Z,20.06
2022-08-03T00:07:25.160Z,20.08
2022-08-03T00:08:25.124Z,20.02
2022-08-03T00:09:25.115Z,20.06
2022-08-03T00:10:25.132Z,20.06
2022-08-03T00:11:25.095Z,20.05
2022-08-03T00:12:25.112Z,20.14
2022-08-03T00:13:25.082Z,20.08
2022-08-03T00:14:25.071Z,20.05
2022-08-03T00:15:25.054Z,20.14
2022-08-03T00:16:25.047Z,20.16
2022-08-03T00:17:25.066Z,20.14
2022-08-03T00:18:25.030Z,20.20
2022-08-03T00:19:25.023Z,20.20
2022-08-03T00:20:25.013Z,20.14
2022-08-03T00:21:25.004Z,20.18
2022-08-03T00:22:24.994Z,20.26
2022-08-03T00:23:25.004Z,20.08
2022-08-03T00:24:24.971Z,20.08
2022-08-03T00:25:24.962Z,20.08
2022-08-03T00:26:24.953Z,20.06
2022-08-03T00:27:24.941Z,20.03
2022-08-03T00:28:24.962Z,20.13
2022-08-03T00:29:24.925Z,20.17
2022-08-03T00:30:30.117Z,20.20
2022-08-03T00:31:45.016Z,20.16
2022-08-03T00:32:24.929Z,20.16
2022-08-03T00:33:24.882Z,20.31
2022-08-03T00:34:34.555Z,20.26
2022-08-03T00:35:35.170Z,20.24
2022-08-03T00:36:24.858Z,20.26
2022-08-03T00:37:24.847Z,20.10
2022-08-03T00:38:24.837Z,19.94
2022-08-03T00:39:24.827Z,19.95
2022-08-03T00:40:24.819Z,19.87
2022-08-03T00:41:24.807Z,19.84
2022-08-03T00:42:24.804Z,19.86
2022-08-03T00:43:24.823Z,19.83
2022-08-03T00:44:24.782Z,19.88
2022-08-03T00:45:24.769Z,19.84
2022-08-03T00:46:24.764Z,19.98
2022-08-03T00:47:24.749Z,19.91
2022-08-03T00:48:33.785Z,19.84
2022-08-03T00:49:24.794Z,19.86
2022-08-03T00:50:24.721Z,19.87
2022-08-03T00:51:24.709Z,19.88
2022-08-03T00:52:24.705Z,19.86
2022-08-03T00:53:24.694Z,19.87
2022-08-03T00:54:24.714Z,19.81
2022-08-03T00:55:24.676Z,19.65
2022-08-03T00:56:24.693Z,19.58
2022-08-03T00:57:24.652Z,19.55
2022-08-03T00:58:24.644Z,19.50
2022-08-03T00:59:24.636Z,19.47
2022-08-03T01:00:24.623Z,19.56
2022-08-03T01:01:24.731Z,19.55
2022-08-03T01:02:24.606Z,19.47
2022-08-03T01:03:24.593Z,19.46
2022-08-03T01:04:24.589Z,19.43
2022-08-03T01:05:24.577Z,19.44
2022-08-03T01:06:24.571Z,19.37
2022-08-03T01:07:24.606Z,19.32
2022-08-03T01:08:24.548Z,19.40
2022-08-03T01:09:24.537Z,19.33
2022-08-03T01:10:24.528Z,19.32
2022-08-03T01:11:24.521Z,19.25
2022-08-03T01:12:24.510Z,19.37
2022-08-03T01:14:03.626Z,19.26
2022-08-03T01:14:26.379Z,19.25
2022-08-03T01:15:24.479Z,19.13
2022-08-03T01:16:25.910Z,19.22
2022-08-03T01:17:24.459Z,19.18
2022-08-03T01:18:24.485Z,19.19
2022-08-03T01:19:24.442Z,19.19
2022-08-03T01:20:24.431Z,19.22
2022-08-03T01:21:24.423Z,19.21
2022-08-03T01:22:24.413Z,19.25
2022-08-03T01:23:24.426Z,19.22
2022-08-03T01:24:24.397Z,19.28
2022-08-03T01:25:24.384Z,19.25
2022-08-03T01:26:24.374Z,19.14
2022-08-03T01:27:24.367Z,19.16
2022-08-03T01:28:24.406Z,19.25
2022-08-03T01:29:24.348Z,19.28
2022-08-03T01:30:24.338Z,19.29
2022-08-03T01:31:24.328Z,19.22
2022-08-03T01:32:53.303Z,19.11
2022-08-03T01:33:24.305Z,19.06
2022-08-03T01:34:24.320Z,18.98
2022-08-03T01:35:24.291Z,19.04
2022-08-03T01:36:24.290Z,19.16
2022-08-03T01:37:24.267Z,19.08
2022-08-03T01:38:24.289Z,19.13
2022-08-03T01:39:24.251Z,19.22
2022-08-03T01:40:24.245Z,19.25
2022-08-03T01:41:24.227Z,19.11
2022-08-03T01:42:24.218Z,19.13
2022-08-03T01:43:55.376Z,19.11
2022-08-03T01:44:28.231Z,19.21
2022-08-03T01:45:24.201Z,19.13
2022-08-03T01:46:24.183Z,19.16
2022-08-03T01:47:24.169Z,19.21
2022-08-03T01:48:24.163Z,19.18
2022-08-03T01:49:24.264Z,19.23
2022-08-03T01:50:24.143Z,19.22
2022-08-03T01:51:24.153Z,19.21
2022-08-03T01:52:24.133Z,19.16
2022-08-03T01:53:24.111Z,19.08
2022-08-03T01:54:24.100Z,19.04
2022-08-03T01:55:24.089Z,19.06
2022-08-03T01:56:24.110Z,19.07
2022-08-03T01:57:24.071Z,19.08
2022-08-03T01:58:24.066Z,19.08
2022-08-03T01:59:24.077Z,19.08
2022-08-03T02:00:24.077Z,19.10
2022-08-03T02:01:24.060Z,19.08
2022-08-03T02:02:32.738Z,19.00
2022-08-03T02:03:24.011Z,18.99
2022-08-03T02:04:24.006Z,18.94
2022-08-03T02:05:23.994Z,18.90
2022-08-03T02:07:02.539Z,18.90
2022-08-03T02:07:24.000Z,18.85
2022-08-03T02:08:23.965Z,18.90
2022-08-03T02:09:23.955Z,18.85
2022-08-03T02:10:34.630Z,18.87
2022-08-03T02:11:23.933Z,18.84
2022-08-03T02:12:23.950Z,18.76
2022-08-03T02:13:23.912Z,18.76
2022-08-03T02:14:23.932Z,18.84
2022-08-03T02:15:23.890Z,18.90
2022-08-03T02:16:23.887Z,18.80
2022-08-03T02:17:38.589Z,18.72
2022-08-03T02:18:23.873Z,18.70
2022-08-03T02:19:23.855Z,18.72
2022-08-03T02:20:23.847Z,18.72
2022-08-03T02:21:56.316Z,18.84
2022-08-03T02:22:23.865Z,18.80
2022-08-03T02:23:23.817Z,18.85
2022-08-03T02:24:23.805Z,18.84
2022-08-03T02:25:23.802Z,18.84
2022-08-03T02:26:23.785Z,18.85
2022-08-03T02:27:23.826Z,18.85
2022-08-03T02:28:23.767Z,18.87
2022-08-03T02:29:39.262Z,18.75
2022-08-03T02:30:23.746Z,18.82
2022-08-03T02:31:23.734Z,18.82
2022-08-03T02:32:23.728Z,18.91
2022-08-03T02:33:23.719Z,18.88
2022-08-03T02:34:23.705Z,18.95
2022-08-03T02:35:23.697Z,18.91
2022-08-03T02:36:23.683Z,18.84
2022-08-03T02:37:23.705Z,18.92
2022-08-03T02:38:23.666Z,18.94
2022-08-03T02:39:23.654Z,18.92
2022-08-03T02:40:23.647Z,18.85
2022-08-03T02:41:23.638Z,18.75
2022-08-03T02:42:23.620Z,18.75
2022-08-03T02:43:23.619Z,18.81
2022-08-03T02:44:23.612Z,18.90
2022-08-03T02:45:23.631Z,18.72
2022-08-03T02:46:23.640Z,18.84
2022-08-03T02:47:23.578Z,18.81
2022-08-03T02:48:23.575Z,18.80
2022-08-03T02:49:40.761Z,18.81
2022-08-03T02:50:23.631Z,18.76
2022-08-03T02:51:23.540Z,18.87
2022-08-03T02:52:23.601Z,18.87
2022-08-03T02:53:23.517Z,18.76
2022-08-03T02:54:23.504Z,18.90
2022-08-03T02:55:23.524Z,18.78
2022-08-03T02:56:23.515Z,18.84
2022-08-03T02:57:23.505Z,18.70
2022-08-03T02:58:23.473Z,18.73
2022-08-03T02:59:23.459Z,18.84
2022-08-03T03:00:27.885Z,18.82
2022-08-03T03:01:23.529Z,18.84
2022-08-03T03:02:23.422Z,18.69
2022-08-03T03:03:23.430Z,18.81
2022-08-03T03:04:24.938Z,18.75
2022-08-03T03:05:52.241Z,18.78
2022-08-03T03:06:23.382Z,18.66
2022-08-03T03:07:23.404Z,18.69
2022-08-03T03:08:26.724Z,18.76
2022-08-03T03:09:23.357Z,18.69
2022-08-03T03:10:23.373Z,18.66
2022-08-03T03:11:23.349Z,18.69
2022-08-03T03:12:23.321Z,18.69
2022-08-03T03:13:23.322Z,18.78
2022-08-03T03:14:33.181Z,18.69
2022-08-03T03:15:23.343Z,18.78
2022-08-03T03:16:23.279Z,18.67
2022-08-03T03:17:23.271Z,18.70
2022-08-03T03:18:23.281Z,18.70
2022-08-03T03:19:23.252Z,18.69
2022-08-03T03:20:29.758Z,18.73
2022-08-03T03:21:23.319Z,18.75
2022-08-03T03:22:23.221Z,18.66
2022-08-03T03:23:23.222Z,18.66
2022-08-03T03:24:23.207Z,18.67
2022-08-03T03:25:23.201Z,18.66
2022-08-03T03:26:23.186Z,18.66
2022-08-03T03:27:23.201Z,18.66
2022-08-03T03:28:23.157Z,18.67
2022-08-03T03:29:23.150Z,18.66
2022-08-03T03:30:23.139Z,18.65
2022-08-03T03:31:23.132Z,18.66
2022-08-03T03:32:23.175Z,18.65
2022-08-03T03:33:23.114Z,18.69
2022-08-03T03:34:23.109Z,18.69
2022-08-03T03:35:23.095Z,18.69
2022-08-03T03:36:23.077Z,18.65
2022-08-03T03:37:23.073Z,18.67
2022-08-03T03:38:23.083Z,18.66
2022-08-03T03:39:23.053Z,18.62
2022-08-03T03:40:23.056Z,18.60
2022-08-03T03:41:23.031Z,18.60
2022-08-03T03:42:23.020Z,18.54
2022-08-03T03:43:23.060Z,18.44
2022-08-03T03:44:23.021Z,18.52
2022-08-03T03:45:22.994Z,18.51
2022-08-03T03:46:22.977Z,18.48
2022-08-03T03:47:32.333Z,18.57
2022-08-03T03:48:22.955Z,18.47
2022-08-03T03:49:23.022Z,18.44
2022-08-03T03:50:22.937Z,18.51
2022-08-03T03:51:22.938Z,18.57
2022-08-03T03:52:22.919Z,18.37
2022-08-03T03:53:22.967Z,18.47
2022-08-03T03:54:25.563Z,18.50
2022-08-03T03:55:22.884Z,18.41
2022-08-03T03:56:22.874Z,18.41
2022-08-03T03:57:22.872Z,18.42
2022-08-03T03:58:22.850Z,18.37
2022-08-03T03:59:22.874Z,18.37
2022-08-03T04:00:22.835Z,18.39
2022-08-03T04:01:22.892Z,18.35
2022-08-03T04:02:22.822Z,18.26
2022-08-03T04:03:22.808Z,18.30
2022-08-03T04:04:22.835Z,18.32
2022-08-03T04:05:22.811Z,18.42
2022-08-03T04:06:22.774Z,18.36
2022-08-03T04:07:22.782Z,18.41
2022-08-03T04:08:22.753Z,18.51
2022-08-03T04:09:22.743Z,18.58
2022-08-03T04:10:22.763Z,18.58
2022-08-03T04:11:30.295Z,18.72
2022-08-03T04:12:22.708Z,18.70
2022-08-03T04:13:22.702Z,18.66
2022-08-03T04:14:22.726Z,18.67
2022-08-03T04:15:22.683Z,18.75
2022-08-03T04:16:22.669Z,18.66
2022-08-03T04:17:22.661Z,18.67
2022-08-03T04:18:22.651Z,18.66
2022-08-03T04:19:23.460Z,18.78
2022-08-03T04:20:22.662Z,18.72
2022-08-03T04:21:22.620Z,18.81
2022-08-03T04:22:22.607Z,18.67
2022-08-03T04:23:22.599Z,18.67
2022-08-03T04:24:22.585Z,18.66
2022-08-03T04:25:22.621Z,18.65
2022-08-03T04:26:22.570Z,18.76
2022-08-03T04:27:22.557Z,18.76
2022-08-03T04:28:30.807Z,18.78
2022-08-03T04:29:22.537Z,18.69
2022-08-03T04:30:22.550Z,18.62
2022-08-03T04:31:22.520Z,18.67
2022-08-03T04:32:22.540Z,18.63
2022-08-03T04:33:22.497Z,18.67
2022-08-03T04:34:22.489Z,18.66
2022-08-03T04:35:22.479Z,18.66
2022-08-03T04:36:22.465Z,18.72
2022-08-03T04:37:22.486Z,18.66
2022-08-03T04:38:22.448Z,18.67
2022-08-03T04:39:22.435Z,18.66
2022-08-03T04:40:22.917Z,18.62
2022-08-03T04:41:22.414Z,18.57
2022-08-03T04:42:22.523Z,18.51
2022-08-03T04:43:22.392Z,18.42
2022-08-03T04:44:22.382Z,18.41
2022-08-03T04:45:22.373Z,18.36
2022-08-03T04:46:22.386Z,18.45
2022-08-03T04:47:22.350Z,18.45
2022-08-03T04:48:22.343Z,18.54
2022-08-03T04:49:22.462Z,18.45
2022-08-03T04:50:22.347Z,18.50
2022-08-03T04:51:22.318Z,18.50
2022-08-03T04:52:22.301Z,18.57
2022-08-03T04:53:22.327Z,18.42
2022-08-03T04:54:22.277Z,18.47
2022-08-03T04:55:22.265Z,18.50
2022-08-03T04:56:22.278Z,18.52
2022-08-03T04:57:23.568Z,18.57
2022-08-03T04:58:22.239Z,18.66
2022-08-03T04:59:22.236Z,18.57
2022-08-03T05:00:22.216Z,18.47
2022-08-03T05:01:22.304Z,18.50
2022-08-03T05:02:22.193Z,18.57
2022-08-03T05:03:25.057Z,18.36
2022-08-03T05:04:22.174Z,18.41
2022-08-03T05:05:22.167Z,18.48
2022-08-03T05:06:22.154Z,18.42
2022-08-03T05:07:25.019Z,18.37
2022-08-03T05:08:28.049Z,18.39
2022-08-03T05:09:50.783Z,18.39
2022-08-03T05:10:22.115Z,18.41
2022-08-03T05:11:22.107Z,18.47
2022-08-03T05:12:22.094Z,18.54
2022-08-03T05:13:22.111Z,18.51
2022-08-03T05:14:28.089Z,18.50
2022-08-03T05:15:22.063Z,18.42
2022-08-03T05:16:22.057Z,18.44
2022-08-03T05:17:22.047Z,18.47
2022-08-03T05:18:22.063Z,18.52
2022-08-03T05:19:22.085Z,18.47
2022-08-03T05:20:22.011Z,18.51
2022-08-03T05:21:22.000Z,18.51
2022-08-03T05:22:21.992Z,18.51
2022-08-03T05:23:21.984Z,18.54
2022-08-03T05:24:21.972Z,18.55
2022-08-03T05:25:27.100Z,18.58
2022-08-03T05:26:21.952Z,18.63
2022-08-03T05:27:21.945Z,18.66
2022-08-03T05:28:21.933Z,18.66
2022-08-03T05:29:21.925Z,18.78
2022-08-03T05:30:30.994Z,18.75
2022-08-03T05:31:21.910Z,18.67
2022-08-03T05:32:22.250Z,18.78
2022-08-03T05:33:21.894Z,18.76
2022-08-03T05:34:21.870Z,18.70
2022-08-03T05:35:57.736Z,18.82
2022-08-03T05:36:21.907Z,18.78
2022-08-03T05:37:21.843Z,18.70
2022-08-03T05:38:28.139Z,18.76
2022-08-03T05:39:21.826Z,18.78
2022-08-03T05:40:21.807Z,18.75
2022-08-03T05:41:36.532Z,18.67
2022-08-03T05:42:21.829Z,18.75
2022-08-03T05:43:21.783Z,18.73
2022-08-03T05:44:21.767Z,18.84
2022-08-03T05:45:25.412Z,18.84
2022-08-03T05:46:21.747Z,18.91
2022-08-03T05:47:21.738Z,18.82
2022-08-03T05:48:21.761Z,18.87
2022-08-03T05:49:21.772Z,18.98
2022-08-03T05:50:21.709Z,18.92
2022-08-03T05:51:21.700Z,19.00
2022-08-03T05:52:21.838Z,19.06
2022-08-03T05:53:21.691Z,19.10
2022-08-03T05:54:21.669Z,19.06
2022-08-03T05:55:21.660Z,19.16
2022-08-03T05:56:21.652Z,19.11
2022-08-03T05:57:21.661Z,19.11
2022-08-03T05:58:21.655Z,19.11
2022-08-03T05:59:37.695Z,19.11
2022-08-03T06:00:21.607Z,19.10
2022-08-03T06:01:21.630Z,19.10
2022-08-03T06:02:21.587Z,19.10
2022-08-03T06:03:21.609Z,19.11
2022-08-03T06:04:21.570Z,19.18
2022-08-03T06:05:21.571Z,19.22
2022-08-03T06:06:21.547Z,19.19
2022-08-03T06:07:21.549Z,19.23
2022-08-03T06:08:21.563Z,19.16
2022-08-03T06:09:21.522Z,19.26
2022-08-03T06:10:35.662Z,19.23
2022-08-03T06:11:21.526Z,19.32
2022-08-03T06:12:21.504Z,19.31
2022-08-03T06:13:21.491Z,19.33
2022-08-03T06:14:21.469Z,19.32
2022-08-03T06:15:21.504Z,19.28
2022-08-03T06:16:21.452Z,19.31
2022-08-03T06:17:21.444Z,19.25
2022-08-03T06:18:21.430Z,19.28
2022-08-03T06:19:21.454Z,19.26
2022-08-03T06:20:21.417Z,19.39
2022-08-03T06:21:21.406Z,19.26
2022-08-03T06:22:21.445Z,19.28
2022-08-03T06:23:21.382Z,19.37
2022-08-03T06:24:21.404Z,19.32
2022-08-03T06:25:21.522Z,19.37
2022-08-03T06:26:21.376Z,19.41
2022-08-03T06:27:21.344Z,19.41
2022-08-03T06:28:53.368Z,19.37
2022-08-03T06:29:21.332Z,19.37
2022-08-03T06:30:21.592Z,19.40
2022-08-03T06:31:21.311Z,19.44
2022-08-03T06:32:21.292Z,19.43
2022-08-03T06:33:21.295Z,19.48
2022-08-03T06:34:33.715Z,19.55
2022-08-03T06:35:21.271Z,19.48
2022-08-03T06:36:21.258Z,19.46
2022-08-03T06:37:21.249Z,19.59
2022-08-03T06:38:21.238Z,19.59
2022-08-03T06:39:23.193Z,19.65
2022-08-03T06:40:21.772Z,19.63
2022-08-03T06:41:21.278Z,19.63
2022-08-03T06:42:21.209Z,19.71
2022-08-03T06:43:21.191Z,19.71
2022-08-03T06:44:21.181Z,19.74
2022-08-03T06:45:21.168Z,19.78
2022-08-03T06:46:21.160Z,19.83
2022-08-03T06:47:21.175Z,19.84
2022-08-03T06:48:21.144Z,19.83
2022-08-03T06:49:21.194Z,19.84
2022-08-03T06:50:26.032Z,19.94
2022-08-03T06:51:21.111Z,19.98
2022-08-03T06:52:44.871Z,20.05
2022-08-03T06:53:21.483Z,20.05
2022-08-03T06:54:21.089Z,20.16
2022-08-03T06:55:21.083Z,20.17
2022-08-03T06:56:21.065Z,20.14
2022-08-03T06:57:21.053Z,20.16
2022-08-03T06:58:21.108Z,20.26
2022-08-03T07:00:10.364Z,20.24
2022-08-03T07:00:21.355Z,20.33
2022-08-03T07:01:21.053Z,20.39
2022-08-03T07:02:21.159Z,20.41
2022-08-03T07:03:20.997Z,20.38
2022-08-03T07:04:20.996Z,20.55
2022-08-03T07:05:20.981Z,20.61
2022-08-03T07:06:20.973Z,20.62
2022-08-03T07:07:20.962Z,20.69
2022-08-03T07:08:33.800Z,20.80
2022-08-03T07:09:20.983Z,20.85
2022-08-03T07:10:20.935Z,20.70
2022-08-03T07:11:20.922Z,20.73
2022-08-03T07:12:20.913Z,20.85
2022-08-03T07:13:20.913Z,20.79
2022-08-03T07:14:20.898Z,20.85
2022-08-03T07:15:54.287Z,20.87
2022-08-03T07:16:20.877Z,20.92
2022-08-03T07:17:20.869Z,20.94
2022-08-03T07:18:29.562Z,20.94
2022-08-03T07:19:20.862Z,21.04
2022-08-03T07:20:20.897Z,21.10
2022-08-03T07:21:20.839Z,21.14
2022-08-03T07:22:20.823Z,21.16
2022-08-03T07:23:20.815Z,21.28
2022-08-03T07:24:20.807Z,21.14
2022-08-03T07:25:20.792Z,21.21
2022-08-03T07:26:20.789Z,21.27
2022-08-03T07:27:20.787Z,21.22
2022-08-03T07:28:20.777Z,21.32
2022-08-03T07:29:20.762Z,21.34
2022-08-03T07:30:20.749Z,21.43
2022-08-03T07:31:20.738Z,21.47
2022-08-03T07:32:20.737Z,21.46
2022-08-03T07:33:20.966Z,21.56
2022-08-03T07:34:20.715Z,21.56
2022-08-03T07:35:24.744Z,21.69
2022-08-03T07:36:20.718Z,21.69
2022-08-03T07:37:20.710Z,21.71
2022-08-03T07:38:21.223Z,21.71
2022-08-03T07:39:20.664Z,21.72
2022-08-03T07:40:20.657Z,21.75
2022-08-03T07:41:20.655Z,21.98
2022-08-03T07:42:20.709Z,22.02
2022-08-03T07:43:20.629Z,22.03
2022-08-03T07:44:20.629Z,22.20
2022-08-03T07:45:20.612Z,22.27
2022-08-03T07:46:20.608Z,22.30
2022-08-03T07:47:22.637Z,22.33
2022-08-03T07:48:20.589Z,22.30
2022-08-03T07:49:20.626Z,22.49
2022-08-03T07:50:20.671Z,22.58
2022-08-03T07:51:20.559Z,22.54
2022-08-03T07:52:20.557Z,22.61
2022-08-03T07:53:20.740Z,22.61
2022-08-03T07:54:21.000Z,22.80
2022-08-03T07:55:20.542Z,23.22
2022-08-03T07:56:20.521Z,23.36
2022-08-03T07:57:20.510Z,23.54
2022-08-03T07:58:24.000Z,23.54
2022-08-03T07:59:20.515Z,23.38
2022-08-03T08:00:20.532Z,23.38
2022-08-03T08:01:20.525Z,23.51
2022-08-03T08:02:20.472Z,23.69
2022-08-03T08:03:20.457Z,23.65
2022-08-03T08:04:20.470Z,23.72
2022-08-03T08:05:20.437Z,23.61
2022-08-03T08:06:20.461Z,23.51
2022-08-03T08:07:20.738Z,23.51
2022-08-03T08:08:20.416Z,23.72
2022-08-03T08:09:20.427Z,24.02
2022-08-03T08:10:20.409Z,24.08
2022-08-03T08:11:20.394Z,24.08
2022-08-03T08:12:20.658Z,24.24
2022-08-03T08:13:20.433Z,24.18
2022-08-03T08:14:20.365Z,24.32
2022-08-03T08:15:20.358Z,24.39
2022-08-03T08:16:20.361Z,24.45
2022-08-03T08:17:20.338Z,24.43
2022-08-03T08:18:20.333Z,24.45
2022-08-03T08:19:20.352Z,24.45
2022-08-03T08:20:27.059Z,24.55
2022-08-03T08:21:20.321Z,24.49
2022-08-03T08:22:29.829Z,24.49
2022-08-03T08:23:41.898Z,24.53
2022-08-03T08:24:20.463Z,24.57
2022-08-03T08:25:20.281Z,24.57
2022-08-03T08:26:20.266Z,24.50
2022-08-03T08:27:20.256Z,24.49
2022-08-03T08:28:29.284Z,24.46
2022-08-03T08:29:20.246Z,24.53
2022-08-03T08:30:20.341Z,24.57
2022-08-03T08:31:20.245Z,24.58
2022-08-03T08:32:20.223Z,24.71
2022-08-03T08:33:22.569Z,24.69
2022-08-03T08:34:20.234Z,24.81
2022-08-03T08:35:20.197Z,24.83
2022-08-03T08:36:20.194Z,24.84
2022-08-03T08:37:20.189Z,24.96
2022-08-03T08:38:20.176Z,24.76
2022-08-03T08:39:20.166Z,24.85
2022-08-03T08:40:20.189Z,24.91
2022-08-03T08:41:20.194Z,25.08
2022-08-03T08:42:20.143Z,25.05
2022-08-03T08:43:20.135Z,25.08
2022-08-03T08:44:20.132Z,24.96
2022-08-03T08:45:20.123Z,24.95
2022-08-03T08:46:23.497Z,24.84
2022-08-03T08:47:20.103Z,24.73
2022-08-03T08:48:20.099Z,24.83
2022-08-03T08:49:20.118Z,24.99
2022-08-03T08:50:27.602Z,24.99
2022-08-03T08:51:20.101Z,24.98
2022-08-03T08:52:25.267Z,25.02
2022-08-03T08:53:25.477Z,24.90
2022-08-03T08:54:20.054Z,24.96
2022-08-03T08:55:20.045Z,25.00
2022-08-03T08:56:20.049Z,25.02
2022-08-03T08:57:41.493Z,25.13
2022-08-03T08:58:21.101Z,25.06
2022-08-03T08:59:20.017Z,25.21
2022-08-03T09:00:20.010Z,25.38
2022-08-03T09:01:20.062Z,25.51
2022-08-03T09:02:20.102Z,25.58
2022-08-03T09:03:29.354Z,25.52
2022-08-03T09:04:20.014Z,25.50
2022-08-03T09:05:27.838Z,25.42
2022-08-03T09:06:20.006Z,25.46
2022-08-03T09:07:29.156Z,25.58
2022-08-03T09:08:19.984Z,25.72
2022-08-03T09:10:11.646Z,25.75
2022-08-03T09:10:20.041Z,25.97
2022-08-03T09:11:19.968Z,26.01
2022-08-03T09:12:40.962Z,26.02
2022-08-03T09:13:20.083Z,26.15
2022-08-03T09:14:33.692Z,26.05
2022-08-03T09:15:20.054Z,26.13
2022-08-03T09:16:19.907Z,26.18
2022-08-03T09:17:20.222Z,26.20
2022-08-03T09:18:19.889Z,26.18
2022-08-03T09:19:19.882Z,26.17
2022-08-03T09:20:19.882Z,26.20
2022-08-03T09:21:33.951Z,26.25
2022-08-03T09:22:19.887Z,26.02
2022-08-03T09:23:51.443Z,26.13
2022-08-03T09:24:31.308Z,26.20
2022-08-03T09:25:24.588Z,26.21
2022-08-03T09:26:19.840Z,26.15
2022-08-03T09:27:19.844Z,26.05
2022-08-03T09:28:32.338Z,26.02
2022-08-03T09:29:19.857Z,26.07
2022-08-03T09:30:33.125Z,25.85
2022-08-03T09:31:19.809Z,25.92
2022-08-03T09:32:19.810Z,25.99
2022-08-03T09:33:19.815Z,26.06
2022-08-03T09:34:19.795Z,26.13
2022-08-03T09:35:33.150Z,26.35
2022-08-03T09:36:19.781Z,26.57
2022-08-03T09:37:20.034Z,26.63
2022-08-03T09:38:19.771Z,26.67
2022-08-03T09:39:19.769Z,26.69
2022-08-03T09:40:19.767Z,26.76
2022-08-03T09:41:19.757Z,26.88
2022-08-03T09:42:23.553Z,26.87
2022-08-03T09:43:19.753Z,26.87
2022-08-03T09:44:25.234Z,26.99
2022-08-03T09:45:19.775Z,26.99
2022-08-03T09:46:19.750Z,27.04
2022-08-03T09:47:19.943Z,27.03
2022-08-03T09:48:19.739Z,27.13
2022-08-03T09:49:19.817Z,27.14
2022-08-03T09:50:19.734Z,27.13
2022-08-03T09:52:28.878Z,27.07
2022-08-03T09:52:31.714Z,27.25
2022-08-03T09:53:19.720Z,27.43
2022-08-03T09:54:20.799Z,27.43
2022-08-03T09:56:30.522Z,27.60
2022-08-03T09:56:34.556Z,27.63
2022-08-03T09:57:19.853Z,27.74
2022-08-03T09:58:19.765Z,27.70
2022-08-03T09:59:19.713Z,27.74
2022-08-03T10:00:19.712Z,27.74
2022-08-03T10:01:24.242Z,27.60
2022-08-03T10:02:19.711Z,27.51
2022-08-03T10:03:19.705Z,27.49
2022-08-03T10:04:19.730Z,27.43
2022-08-03T10:05:20.106Z,27.43
2022-08-03T10:06:19.710Z,27.25
2022-08-03T10:07:20.045Z,27.22
2022-08-03T10:08:19.702Z,27.43
2022-08-03T10:09:19.750Z,27.55
2022-08-03T10:10:28.933Z,27.74
2022-08-03T10:11:19.700Z,27.78
2022-08-03T10:12:19.695Z,27.70
2022-08-03T10:13:19.693Z,27.77
2022-08-03T10:14:19.930Z,27.81
2022-08-03T10:16:21.153Z,27.81
2022-08-03T10:16:24.988Z,27.79
2022-08-03T10:17:19.804Z,27.81
2022-08-03T10:18:19.692Z,28.02
2022-08-03T10:19:19.726Z,28.06
2022-08-03T10:20:19.719Z,28.24
2022-08-03T10:21:19.710Z,28.40
2022-08-03T10:22:19.691Z,28.64
2022-08-03T10:23:19.689Z,28.67
2022-08-03T10:24:19.697Z,28.66
2022-08-03T10:25:19.752Z,28.70
2022-08-03T10:26:19.696Z,28.48
2022-08-03T10:27:19.989Z,28.49
2022-08-03T10:28:19.693Z,28.59
2022-08-03T10:29:19.710Z,28.49
2022-08-03T10:30:19.698Z,28.54
2022-08-03T10:31:19.719Z,28.36
2022-08-03T10:32:19.705Z,28.34
2022-08-03T10:33:49.472Z,28.11
2022-08-03T10:34:19.697Z,27.82
2022-08-03T10:35:21.254Z,27.74
2022-08-03T10:36:19.748Z,27.60
2022-08-03T10:37:19.966Z,27.41
2022-08-03T10:38:19.705Z,27.27
2022-08-03T10:39:19.709Z,27.28
2022-08-03T10:40:39.507Z,27.25
2022-08-03T10:41:19.726Z,27.19
2022-08-03T10:42:19.695Z,27.29
2022-08-03T10:43:19.728Z,27.44
2022-08-03T10:44:19.695Z,27.55
2022-08-03T10:45:19.852Z,27.70
2022-08-03T10:46:19.691Z,27.78
2022-08-03T10:47:20.001Z,27.63
2022-08-03T10:48:19.691Z,27.49
2022-08-03T10:49:33.829Z,27.44
2022-08-03T10:50:19.684Z,27.44
2022-08-03T10:51:19.721Z,27.46
2022-08-03T10:52:33.810Z,27.55
2022-08-03T10:53:20.069Z,27.63
2022-08-03T10:54:19.707Z,27.57
2022-08-03T10:55:20.678Z,27.37
2022-08-03T10:56:19.677Z,27.43
2022-08-03T10:57:19.715Z,27.43
2022-08-03T10:58:30.335Z,27.40
2022-08-03T10:59:28.158Z,27.47
2022-08-03T11:00:19.663Z,27.46
2022-08-03T11:01:19.712Z,27.59
2022-08-03T11:02:19.649Z,27.57
2022-08-03T11:03:19.690Z,27.60
2022-08-03T11:04:19.642Z,27.62
2022-08-03T11:05:19.647Z,27.59
2022-08-03T11:06:19.639Z,27.51
2022-08-03T11:07:20.046Z,27.47
2022-08-03T11:08:19.688Z,27.40
2022-08-03T11:09:19.646Z,27.29
2022-08-03T11:10:19.627Z,27.29
2022-08-03T11:11:19.620Z,27.43
2022-08-03T11:12:19.616Z,27.49
2022-08-03T11:13:19.612Z,27.46
2022-08-03T11:14:19.645Z,27.46
2022-08-03T11:15:19.601Z,27.41
2022-08-03T11:16:21.894Z,27.44
2022-08-03T11:17:19.954Z,27.51
2022-08-03T11:18:19.584Z,27.72
2022-08-03T11:19:19.618Z,27.70
2022-08-03T11:20:19.574Z,27.63
2022-08-03T11:21:19.572Z,27.65
2022-08-03T11:22:19.573Z,27.72
2022-08-03T11:23:19.569Z,27.77
2022-08-03T11:24:19.584Z,27.79
2022-08-03T11:25:34.826Z,27.78
2022-08-03T11:26:19.543Z,27.74
2022-08-03T11:27:19.876Z,27.66
2022-08-03T11:28:19.540Z,27.87
2022-08-03T11:29:19.563Z,27.87
2022-08-03T11:30:19.526Z,27.96
2022-08-03T11:31:46.797Z,28.24
2022-08-03T11:32:19.697Z,28.40
2022-08-03T11:33:19.516Z,28.30
2022-08-03T11:34:19.515Z,28.24
2022-08-03T11:35:19.580Z,28.22
2022-08-03T11:36:32.328Z,28.21
2022-08-03T11:37:19.878Z,28.34
2022-08-03T11:38:19.494Z,28.59
2022-08-03T11:39:19.488Z,28.78
2022-08-03T11:40:19.482Z,28.90
2022-08-03T11:41:19.477Z,28.77
2022-08-03T11:42:19.471Z,28.67
2022-08-03T11:43:19.479Z,28.68
2022-08-03T11:44:19.469Z,28.31
2022-08-03T11:45:19.520Z,28.30
2022-08-03T11:46:29.531Z,28.29
2022-08-03T11:47:20.154Z,28.49
2022-08-03T11:48:20.595Z,28.66
2022-08-03T11:49:19.509Z,28.66
2022-08-03T11:50:19.467Z,28.64
2022-08-03T11:51:19.443Z,28.67
2022-08-03T11:52:19.486Z,28.61
2022-08-03T11:53:19.433Z,28.71
2022-08-03T11:54:19.426Z,29.00
2022-08-03T11:55:19.449Z,28.98
2022-08-03T11:56:19.442Z,28.70
2022-08-03T11:57:19.610Z,28.48
2022-08-03T11:59:03.380Z,28.43
2022-08-03T11:59:22.176Z,28.44
2022-08-03T12:00:19.410Z,28.43
2022-08-03T12:01:23.009Z,28.55
2022-08-03T12:02:19.406Z,28.58
2022-08-03T12:03:19.440Z,28.64
2022-08-03T12:04:19.398Z,28.66
2022-08-03T12:05:19.403Z,28.54
2022-08-03T12:06:19.417Z,28.29
2022-08-03T12:07:24.999Z,28.36
2022-08-03T12:08:19.390Z,28.39
2022-08-03T12:09:21.208Z,28.34
2022-08-03T12:10:19.373Z,28.48
2022-08-03T12:11:19.403Z,28.54
2022-08-03T12:12:19.369Z,28.59
2022-08-03T12:14:43.785Z,28.70
2022-08-03T12:14:51.064Z,28.67
2022-08-03T12:15:19.359Z,28.68
2022-08-03T12:16:19.390Z,28.59
2022-08-03T12:17:19.733Z,28.61
2022-08-03T12:18:19.357Z,28.80
2022-08-03T12:19:19.345Z,28.88
2022-08-03T12:20:19.338Z,28.85
2022-08-03T12:21:19.339Z,28.74
2022-08-03T12:22:19.358Z,28.74
2022-08-03T12:23:19.337Z,28.74
2022-08-03T12:24:19.324Z,28.81
2022-08-03T12:25:19.343Z,28.74
2022-08-03T12:26:19.358Z,28.67
2022-08-03T12:27:19.657Z,28.76
2022-08-03T12:28:35.976Z,28.86
2022-08-03T12:29:19.317Z,28.92
2022-08-03T12:30:19.337Z,28.88
2022-08-03T12:31:19.297Z,28.76
2022-08-03T12:32:19.319Z,28.74
2022-08-03T12:33:19.286Z,28.73
2022-08-03T12:34:19.279Z,28.73
2022-08-03T12:35:19.273Z,28.92
2022-08-03T12:36:19.335Z,29.04
2022-08-03T12:37:23.033Z,29.06
2022-08-03T12:38:19.258Z,28.88
2022-08-03T12:39:19.257Z,28.77
2022-08-03T12:40:22.119Z,28.74
2022-08-03T12:41:19.245Z,28.77
2022-08-03T12:42:19.286Z,28.83
2022-08-03T12:43:19.239Z,28.90
2022-08-03T12:44:19.245Z,29.12
2022-08-03T12:45:19.232Z,29.00
2022-08-03T12:46:19.223Z,29.18
2022-08-03T12:47:19.575Z,29.16
2022-08-03T12:48:19.224Z,29.24
2022-08-03T12:49:19.278Z,29.31
2022-08-03T12:50:19.201Z,29.39
2022-08-03T12:51:19.205Z,29.39
2022-08-03T12:52:19.216Z,29.34